Time;durP1;ratioP1;P1;durP2;ratioP2;P2;SDS_P1;SDS_P2;PMS_P1;PMS_P2;Temp;Humidity;BMP_temperature;BMP_pressure;BME280_temperature;BME280_humidity;BME280_pressure;Samples;Min_cycle;Max_cycle;Signal;HPM_P1;HPM_P2
2021/06/02 00:02:14;;;;;;;0.70;0.63;;;;;;;27.35;18.55;98530.25;5095521;28;20059;-86
2021/06/02 00:05:02;;;;;;;0.63;0.60;;;;;;;27.07;18.89;98528.97;5095210;28;20028;-85
2021/06/02 00:07:28;;;;;;;1.17;0.55;;;;;;;27.08;18.75;98526.97;5095485;28;20080;-85
2021/06/02 00:09:56;;;;;;;3.17;0.77;;;;;;;26.99;18.55;98524.78;5095059;28;20484;-85
2021/06/02 00:12:22;;;;;;;0.47;0.47;;;;;;;27.20;18.57;98521.38;5095181;28;20032;-85
2021/06/02 00:14:48;;;;;;;1.15;0.80;;;;;;;27.28;18.31;98519.94;5095251;28;20505;-85
2021/06/02 00:17:16;;;;;;;1.67;0.90;;;;;;;27.29;18.36;98524.34;5095239;28;20036;-85
2021/06/02 00:19:42;;;;;;;0.80;0.63;;;;;;;27.02;18.40;98518.28;5095135;28;20055;-85
2021/06/02 00:22:09;;;;;;;2.35;0.65;;;;;;;27.01;18.67;98516.69;5094888;28;20074;-85
2021/06/02 00:24:36;;;;;;;1.48;0.77;;;;;;;27.01;18.67;98515.88;5094772;28;20490;-85
2021/06/02 00:27:06;;;;;;;2.25;0.70;;;;;;;26.95;18.33;98517.66;5095066;28;20035;-85
2021/06/02 00:29:34;;;;;;;1.98;0.70;;;;;;;27.04;18.42;98518.63;5095251;28;20097;-85
2021/06/02 00:32:05;;;;;;;1.95;0.60;;;;;;;27.13;18.57;98517.97;5093657;28;20067;-85
2021/06/02 00:34:31;;;;;;;1.08;0.60;;;;;;;27.30;18.13;98522.34;5094769;28;20035;-85
2021/06/02 00:37:02;;;;;;;0.60;0.60;;;;;;;27.30;18.06;98513.88;5094786;28;20085;-85
2021/06/02 00:39:28;;;;;;;2.78;0.70;;;;;;;27.45;17.82;98517.88;5094528;28;20111;-85
2021/06/02 00:41:55;;;;;;;0.50;0.50;;;;;;;27.66;17.56;98514.44;5094554;28;20031;-85
2021/06/02 00:44:22;;;;;;;0.77;0.50;;;;;;;27.62;17.87;98519.41;5094995;28;20448;-85
2021/06/02 00:46:50;;;;;;;1.55;0.82;;;;;;;27.58;17.86;98518.72;5094376;28;20476;-85
2021/06/02 00:49:24;;;;;;;0.98;0.68;;;;;;;27.44;18.25;98515.53;5094652;28;20078;-85
2021/06/02 00:52:04;;;;;;;0.95;0.70;;;;;;;27.39;18.27;98514.84;5094543;28;20039;-85
2021/06/02 00:54:33;;;;;;;1.58;0.70;;;;;;;27.36;18.26;98517.72;5094389;28;20024;-85
2021/06/02 00:57:04;;;;;;;0.55;0.55;;;;;;;27.18;18.20;98515.41;5094196;28;20119;-85
2021/06/02 00:59:39;;;;;;;2.22;0.82;;;;;;;26.81;18.88;98515.22;5094373;28;20111;-85
2021/06/02 01:02:12;;;;;;;1.42;0.80;;;;;;;26.46;18.83;98520.50;5094269;28;20032;-85
2021/06/02 01:04:40;;;;;;;0.68;0.65;;;;;;;26.62;19.18;98520.50;5094592;28;20126;-85
2021/06/02 01:07:09;;;;;;;1.08;0.65;;;;;;;26.51;19.09;98519.94;5094252;28;20032;-85
2021/06/02 01:09:35;;;;;;;0.93;0.77;;;;;;;26.52;19.06;98515.13;5093970;28;20062;-85
2021/06/02 01:12:02;;;;;;;2.30;0.75;;;;;;;26.58;19.08;98519.78;5094526;28;20028;-85
2021/06/02 01:14:30;;;;;;;1.75;0.68;;;;;;;26.55;19.21;98526.31;5093697;28;20107;-85
2021/06/02 01:16:57;;;;;;;0.75;0.60;;;;;;;26.47;19.22;98522.06;5085181;28;20028;-85
2021/06/02 01:19:23;;;;;;;1.77;0.70;;;;;;;26.49;19.42;98528.03;5073714;28;20428;-85
2021/06/02 01:22:00;;;;;;;1.30;0.73;;;;;;;26.59;19.06;98526.19;5073600;28;20032;-85
2021/06/02 01:24:31;;;;;;;1.02;0.70;;;;;;;26.57;19.17;98521.03;5074265;28;20043;-85
2021/06/02 01:27:01;;;;;;;0.90;0.68;;;;;;;26.64;18.75;98522.84;5074477;28;20463;-85
2021/06/02 01:29:28;;;;;;;0.68;0.63;;;;;;;26.50;19.22;98518.38;5077677;28;20137;-85
2021/06/02 01:32:41;;;;;;;0.65;0.52;;;;;;;26.31;19.26;98524.06;5093817;28;20024;-85
2021/06/02 01:35:44;;;;;;;1.70;0.68;;;;;;;26.31;19.26;98533.31;5093807;28;20039;-85
2021/06/02 01:38:19;;;;;;;1.30;0.82;;;;;;;26.51;18.84;98530.44;5093376;28;20031;-85
2021/06/02 01:40:54;;;;;;;0.95;0.73;;;;;;;26.64;18.95;98526.47;5093995;28;20024;-85
2021/06/02 01:43:46;;;;;;;1.40;0.85;;;;;;;26.58;18.70;98528.22;5093559;28;20020;-85
2021/06/02 01:46:50;;;;;;;1.58;0.57;;;;;;;26.32;19.32;98534.91;5093353;28;20436;-85
2021/06/02 01:49:16;;;;;;;0.52;0.52;;;;;;;26.47;19.20;98532.53;5093612;28;20445;-85
2021/06/02 01:52:19;;;;;;;0.68;0.60;;;;;;;26.51;18.94;98536.06;5093645;28;20474;-84
2021/06/02 01:55:12;;;;;;;1.25;0.63;;;;;;;26.56;18.79;98533.50;5094079;28;20089;-85
2021/06/02 01:58:02;;;;;;;1.85;0.60;;;;;;;26.57;18.62;98537.91;5093385;28;20031;-85
2021/06/02 02:00:41;;;;;;;1.90;0.82;;;;;;;26.45;18.47;98535.81;5093436;28;20476;-85
2021/06/02 02:03:27;;;;;;;1.10;0.60;;;;;;;26.60;18.45;98534.22;5093224;28;20107;-85
2021/06/02 02:05:59;;;;;;;1.02;0.80;;;;;;;26.73;18.20;98546.38;5093372;28;20032;-85
2021/06/02 02:09:02;;;;;;;0.60;0.50;;;;;;;26.54;18.19;98552.06;5093571;28;20043;-85
2021/06/02 02:11:32;;;;;;;1.50;0.77;;;;;;;26.54;18.28;98554.88;5093320;28;20028;-85
2021/06/02 02:14:24;;;;;;;0.65;0.60;;;;;;;26.50;18.34;98549.34;5093135;28;20107;-85
2021/06/02 02:17:24;;;;;;;2.30;0.77;;;;;;;26.43;18.22;98548.72;5086274;28;20093;-84
2021/06/02 02:20:32;;;;;;;0.90;0.73;;;;;;;26.43;18.34;98541.09;5087932;28;20045;-85
2021/06/02 02:23:24;;;;;;;0.60;0.50;;;;;;;26.24;18.21;98541.94;5011385;28;20117;-85
2021/06/02 02:26:08;;;;;;;;;;;;;;;25.98;19.35;98549.31;5011959;28;20034;-85
2021/06/02 02:28:48;;;;;;;0.70;0.63;;;;;;;26.08;18.35;98553.94;5056776;28;19970;-84
2021/06/02 02:31:32;;;;;;;1.15;0.80;;;;;;;25.84;19.17;98548.84;5077061;28;20392;-85
2021/06/02 02:34:36;;;;;;;1.23;0.68;;;;;;;25.19;19.69;98548.53;5076950;28;20035;-85
2021/06/02 02:37:06;;;;;;;0.70;0.60;;;;;;;25.41;19.43;98548.91;5077655;28;20040;-84
2021/06/02 02:39:56;;;;;;;0.83;0.60;;;;;;;25.60;18.95;98553.75;5076900;28;20031;-84
2021/06/02 02:42:39;;;;;;;0.50;0.50;;;;;;;25.98;18.79;98551.34;5077349;28;20112;-84
2021/06/02 02:45:35;;;;;;;1.65;1.05;;;;;;;26.16;18.56;98559.44;5095840;28;20111;-85
2021/06/02 02:48:28;;;;;;;1.52;0.70;;;;;;;26.00;18.42;98555.31;5076573;28;20085;-84
2021/06/02 02:51:12;;;;;;;1.58;0.70;;;;;;;25.86;18.86;98554.81;5076345;28;20546;-84
2021/06/02 02:54:03;;;;;;;0.57;0.57;;;;;;;25.87;18.86;98560.03;5077147;28;20027;-84
2021/06/02 02:56:45;;;;;;;3.50;0.68;;;;;;;25.55;19.41;98559.91;5096286;28;20101;-84
2021/06/02 02:59:27;;;;;;;0.93;0.70;;;;;;;25.60;19.38;98564.25;5096743;28;20515;-84
2021/06/02 03:02:16;;;;;;;1.60;0.73;;;;;;;25.51;19.49;98569.66;5096823;28;20483;-84
2021/06/02 03:04:51;;;;;;;1.55;0.80;;;;;;;25.52;19.22;98574.03;5096477;28;20020;-85
2021/06/02 03:07:18;;;;;;;0.65;0.57;;;;;;;25.30;20.20;98580.03;5096845;28;20032;-84
2021/06/02 03:10:03;;;;;;;1.73;0.77;;;;;;;24.92;20.89;98584.38;5096789;28;20028;-84
2021/06/02 03:12:47;;;;;;;1.45;0.80;;;;;;;25.09;20.66;98588.84;5096187;28;20038;-84
2021/06/02 03:15:28;;;;;;;0.75;0.75;;;;;;;25.53;19.98;98590.50;5096352;28;20089;-84
2021/06/02 03:18:06;;;;;;;1.27;0.93;;;;;;;25.48;20.51;98593.00;5096104;28;20128;-84
2021/06/02 03:21:13;;;;;;;2.58;0.80;;;;;;;25.65;20.33;98591.88;5096728;28;20035;-84
2021/06/02 03:23:59;;;;;;;0.90;0.70;;;;;;;26.01;19.65;98587.06;5095779;28;20040;-84
2021/06/02 03:26:34;;;;;;;3.92;0.90;;;;;;;26.15;19.50;98595.22;5096231;28;20032;-85
2021/06/02 03:29:13;;;;;;;0.88;0.60;;;;;;;26.76;19.37;98592.63;5096198;28;20035;-84
2021/06/02 03:32:07;;;;;;;1.00;0.80;;;;;;;27.65;18.36;98585.44;5096449;28;20032;-84
2021/06/02 03:34:59;;;;;;;1.02;0.70;;;;;;;28.40;18.11;98596.88;5095890;28;20064;-85
2021/06/02 03:37:34;;;;;;;1.52;0.82;;;;;;;28.34;18.68;98592.25;5096308;28;20118;-85
2021/06/02 03:40:15;;;;;;;1.63;0.98;;;;;;;28.41;19.58;98592.84;5095917;28;20026;-85
2021/06/02 03:43:07;;;;;;;2.17;0.93;;;;;;;28.37;19.20;98597.81;5096401;28;20365;-85
2021/06/02 03:45:48;;;;;;;1.55;1.08;;;;;;;28.32;19.16;98598.38;5087883;28;20036;-85
2021/06/02 03:48:51;;;;;;;2.88;1.05;;;;;;;27.97;19.46;98602.22;5095645;28;20507;-85
2021/06/02 03:51:25;;;;;;;0.95;0.65;;;;;;;27.96;19.63;98597.81;5095717;28;20503;-85
2021/06/02 03:54:08;;;;;;;1.50;1.00;;;;;;;28.41;18.84;98608.97;5096016;28;20061;-85
2021/06/02 03:56:52;;;;;;;3.45;0.80;;;;;;;28.68;18.09;98606.56;5095864;28;20426;-85
2021/06/02 03:59:37;;;;;;;1.55;1.00;;;;;;;28.67;18.77;98613.44;5095730;28;20370;-85
2021/06/02 04:02:19;;;;;;;1.90;1.17;;;;;;;28.76;17.99;98607.88;5093994;28;20032;-85
2021/06/02 04:05:03;;;;;;;2.42;1.00;;;;;;;28.35;18.32;98616.44;5075592;28;20031;-85
2021/06/02 04:07:58;;;;;;;1.15;1.05;;;;;;;27.94;18.98;98620.84;5075793;28;20107;-85
2021/06/02 04:10:37;;;;;;;2.67;1.13;;;;;;;27.97;19.36;98619.16;5075098;28;20491;-85
2021/06/02 04:13:14;;;;;;;2.30;0.80;;;;;;;28.03;18.68;98625.88;5078924;28;20024;-85
2021/06/02 04:15:47;;;;;;;1.30;0.93;;;;;;;28.37;18.94;98620.41;5095219;28;20028;-85
2021/06/02 04:18:17;;;;;;;1.52;1.20;;;;;;;28.45;18.79;98621.75;5094723;28;20400;-84
2021/06/02 04:20:45;;;;;;;1.20;1.00;;;;;;;28.30;18.80;98617.81;5094983;28;20123;-85
2021/06/02 04:23:15;;;;;;;1.42;1.00;;;;;;;28.37;19.27;98620.41;5095112;28;20027;-85
2021/06/02 04:25:44;;;;;;;1.45;1.10;;;;;;;28.80;18.58;98622.69;5095115;28;20506;-85
2021/06/02 04:28:12;;;;;;;2.30;1.08;;;;;;;28.90;17.99;98623.59;5095010;28;20024;-85
2021/06/02 04:30:47;;;;;;;1.45;1.20;;;;;;;28.99;18.06;98626.50;5095045;28;20028;-85
2021/06/02 04:33:16;;;;;;;1.85;1.15;;;;;;;28.56;18.11;98633.53;5095219;28;20107;-85
2021/06/02 04:35:50;;;;;;;1.05;0.77;;;;;;;28.21;18.88;98628.97;5095133;28;20081;-85
2021/06/02 04:38:20;;;;;;;1.48;0.70;;;;;;;28.28;18.69;98628.75;5094662;28;20479;-85
2021/06/02 04:40:47;;;;;;;2.25;1.10;;;;;;;28.20;18.95;98633.03;5094774;28;20063;-85
2021/06/02 04:43:14;;;;;;;1.35;0.90;;;;;;;28.31;18.57;98633.50;5094443;28;20020;-85
2021/06/02 04:45:56;;;;;;;1.67;1.30;;;;;;;28.07;18.89;98646.34;5094438;28;20036;-85
2021/06/02 04:48:23;;;;;;;1.45;0.80;;;;;;;28.02;18.86;98642.03;5094627;28;20032;-85
2021/06/02 04:51:13;;;;;;;0.90;0.90;;;;;;;27.88;19.39;98644.44;5093817;28;20047;-85
2021/06/02 04:54:33;;;;;;;2.40;1.05;;;;;;;28.13;19.37;98649.38;5094692;28;20489;-85
2021/06/02 04:57:24;;;;;;;1.95;1.05;;;;;;;28.29;19.10;98654.94;5094720;28;20085;-85
2021/06/02 05:00:27;;;;;;;1.20;0.70;;;;;;;28.26;19.42;98651.03;5094501;28;20383;-85
2021/06/02 05:03:21;;;;;;;0.88;0.73;;;;;;;27.80;19.90;98652.31;5094648;28;20039;-85
2021/06/02 05:06:01;;;;;;;1.77;0.90;;;;;;;27.96;19.72;98652.25;5094268;28;20123;-85
2021/06/02 05:09:02;;;;;;;2.60;0.98;;;;;;;28.38;19.10;98660.75;5092833;28;20028;-85
2021/06/02 05:11:40;;;;;;;4.30;1.02;;;;;;;28.44;19.55;98662.56;5082415;28;20060;-85
2021/06/02 05:14:42;;;;;;;2.25;0.70;;;;;;;28.49;19.10;98650.72;5073702;28;20040;-85
2021/06/02 05:17:36;;;;;;;1.05;0.80;;;;;;;28.93;18.99;98660.22;5073825;28;20037;-85
2021/06/02 05:20:26;;;;;;;1.90;0.98;;;;;;;29.08;19.02;98666.22;5073549;28;20484;-85
2021/06/02 05:23:11;;;;;;;6.20;1.20;;;;;;;28.04;19.78;98670.59;5073954;28;20442;-85
2021/06/02 05:26:11;;;;;;;1.63;1.00;;;;;;;27.40;21.32;98665.09;5072490;28;20036;-85
2021/06/02 05:29:10;;;;;;;5.35;1.30;;;;;;;27.82;21.05;98669.56;5087562;28;20032;-85
2021/06/02 05:31:54;;;;;;;1.33;0.93;;;;;;;28.70;20.62;98677.53;5093850;28;20132;-85
2021/06/02 05:34:42;;;;;;;1.50;1.13;;;;;;;28.68;20.41;98680.78;5093818;28;20049;-85
2021/06/02 05:37:40;;;;;;;1.52;1.20;;;;;;;29.12;20.27;98687.47;5094245;28;20036;-85
2021/06/02 05:40:48;;;;;;;2.65;1.30;;;;;;;29.15;19.83;98689.38;5092487;28;20025;-85
2021/06/02 05:43:33;;;;;;;0.98;0.90;;;;;;;28.66;20.19;98691.75;5093584;28;20086;-85
2021/06/02 05:46:30;;;;;;;0.88;0.88;;;;;;;28.28;20.09;98682.44;5093498;28;20032;-85
2021/06/02 05:49:14;;;;;;;2.22;1.08;;;;;;;29.05;20.91;98689.75;5094154;28;20032;-86
2021/06/02 05:52:11;;;;;;;1.88;1.20;;;;;;;29.44;21.44;98686.44;5094183;28;20410;-85
2021/06/02 05:55:26;;;;;;;1.35;1.00;;;;;;;29.25;20.46;98691.09;5093525;28;20123;-85
2021/06/02 05:58:13;;;;;;;4.80;2.97;;;;;;;30.02;19.42;98698.16;5048896;28;20043;-85
2021/06/02 06:01:16;;;;;;;6.07;1.08;;;;;;;29.86;19.35;98695.50;5093583;28;20037;-85
2021/06/02 06:04:04;;;;;;;0.82;0.73;;;;;;;30.04;19.76;98698.47;5093444;28;20024;-85
2021/06/02 06:06:45;;;;;;;3.33;0.98;;;;;;;29.75;20.18;98706.38;5093495;28;20395;-85
2021/06/02 06:09:31;;;;;;;1.13;0.90;;;;;;;29.65;20.02;98707.53;5093688;28;20035;-85
2021/06/02 06:12:06;;;;;;;1.80;1.00;;;;;;;29.75;20.12;98703.56;5085215;28;20119;-85
2021/06/02 06:14:38;;;;;;;2.83;1.00;;;;;;;29.85;20.02;98700.34;5074267;28;20105;-85
2021/06/02 06:17:25;;;;;;;2.53;1.00;;;;;;;30.43;20.48;98700.69;5093349;28;20040;-86
2021/06/02 06:20:30;;;;;;;3.03;0.85;;;;;;;30.42;18.62;98703.97;5092988;28;20048;-86
2021/06/02 06:23:04;;;;;;;2.85;1.17;;;;;;;31.16;18.75;98703.88;5070320;28;20083;-86
2021/06/02 06:25:43;;;;;;;2.15;0.93;;;;;;;31.63;18.43;98695.84;5093536;28;20055;-86
2021/06/02 06:28:33;;;;;;;1.67;1.08;;;;;;;32.03;18.50;98704.25;5092943;28;20110;-86
2021/06/02 06:31:02;;;;;;;2.08;1.20;;;;;;;31.98;18.22;98708.50;5093548;28;20067;-86
2021/06/02 06:33:29;;;;;;;1.00;0.93;;;;;;;32.45;17.86;98698.66;5093159;28;20066;-86
2021/06/02 06:35:56;;;;;;;1.67;1.10;;;;;;;32.22;17.76;98702.19;5092970;28;20020;-86
2021/06/02 06:38:49;;;;;;;1.50;0.93;;;;;;;32.50;17.69;98698.88;5093013;28;20072;-86
2021/06/02 06:41:19;;;;;;;2.53;1.00;;;;;;;32.36;16.93;98693.81;5093119;28;20029;-86
2021/06/02 06:43:46;;;;;;;0.80;0.70;;;;;;;32.14;19.15;98700.94;5076483;28;20028;-86
2021/06/02 06:46:15;;;;;;;0.82;0.77;;;;;;;32.45;16.85;98704.34;5084325;28;20029;-86
2021/06/02 06:48:46;;;;;;;1.08;0.88;;;;;;;32.94;16.85;98706.94;5093599;28;20036;-86
2021/06/02 06:51:14;;;;;;;;;;;;;;;32.65;17.77;98713.22;5093451;28;20124;-86
2021/06/02 06:53:42;;;;;;;0.80;0.80;;;;;;;32.77;16.72;98709.34;5093162;28;19969;-86
2021/06/02 06:56:10;;;;;;;1.58;1.30;;;;;;;33.07;16.80;98704.72;5092926;28;20034;-86
2021/06/02 06:58:37;;;;;;;0.93;0.60;;;;;;;33.62;16.72;98703.16;5093133;28;20036;-86
2021/06/02 07:01:04;;;;;;;2.75;0.85;;;;;;;33.70;16.93;98710.06;5093277;28;20032;-86
2021/06/02 07:03:30;;;;;;;1.23;0.68;;;;;;;33.70;16.94;98704.34;5093246;28;20380;-86
2021/06/02 07:06:00;;;;;;;0.73;0.60;;;;;;;33.58;15.75;98704.63;5092854;28;20035;-86
2021/06/02 07:08:29;;;;;;;2.50;0.60;;;;;;;33.19;16.03;98707.31;5093252;28;20047;-85
2021/06/02 07:10:57;;;;;;;0.75;0.60;;;;;;;33.04;16.79;98699.97;5092421;28;20031;-86
2021/06/02 07:13:24;;;;;;;0.88;0.60;;;;;;;33.05;16.02;98704.41;5094001;28;20080;-86
2021/06/02 07:15:51;;;;;;;1.13;0.70;;;;;;;31.49;17.39;98707.00;5096361;28;20028;-86
2021/06/02 07:18:20;;;;;;;1.13;0.60;;;;;;;31.84;17.44;98706.25;5096557;28;20050;-86
2021/06/02 07:20:49;;;;;;;0.75;0.55;;;;;;;32.89;16.56;98704.72;5096645;28;20032;-85
2021/06/02 07:23:17;;;;;;;1.08;0.40;;;;;;;33.13;16.05;98706.41;5096337;28;20033;-85
2021/06/02 07:25:43;;;;;;;2.38;0.70;;;;;;;32.95;15.94;98697.94;5096366;28;20037;-85
2021/06/02 07:28:13;;;;;;;0.63;0.63;;;;;;;32.97;16.08;98709.63;5096149;28;20498;-86
2021/06/02 07:30:39;;;;;;;0.77;0.50;;;;;;;31.64;17.23;98705.16;5096499;28;20077;-86
2021/06/02 07:33:06;;;;;;;0.40;0.40;;;;;;;29.35;18.08;98714.63;5096245;28;20028;-86
2021/06/02 07:35:33;;;;;;;0.50;0.50;;;;;;;30.15;18.57;98700.94;5096416;28;20035;-86
2021/06/02 07:37:59;;;;;;;6.07;0.55;;;;;;;31.19;17.77;98703.75;5096008;28;20116;-86
2021/06/02 07:40:25;;;;;;;0.40;0.40;;;;;;;31.20;17.52;98705.31;5095967;28;20111;-85
2021/06/02 07:42:52;;;;;;;0.50;0.40;;;;;;;30.57;17.42;98708.63;5077640;28;20037;-85
2021/06/02 07:45:18;;;;;;;0.55;0.55;;;;;;;30.49;17.87;98700.88;5094757;28;20379;-86
2021/06/02 07:47:44;;;;;;;0.60;0.60;;;;;;;31.34;16.84;98701.13;5095835;28;20055;-86
2021/06/02 07:50:12;;;;;;;1.05;0.70;;;;;;;31.94;16.90;98704.22;5096224;28;20043;-85
2021/06/02 07:52:38;;;;;;;0.80;0.40;;;;;;;31.48;16.84;98703.41;5095824;28;20028;-85
2021/06/02 07:55:05;;;;;;;1.00;0.50;;;;;;;30.61;17.96;98705.66;5095871;28;20028;-85
2021/06/02 07:57:32;;;;;;;0.43;0.43;;;;;;;29.94;19.15;98708.94;5095614;28;20060;-85
2021/06/02 07:59:58;;;;;;;0.60;0.50;;;;;;;29.80;18.25;98712.25;5093588;28;20039;-86
2021/06/02 08:02:24;;;;;;;1.70;0.52;;;;;;;30.36;19.07;98703.00;5085120;28;20024;-86
2021/06/02 08:04:50;;;;;;;0.40;0.40;;;;;;;32.21;16.68;98706.31;5075359;28;20110;-86
2021/06/02 08:07:16;;;;;;;0.73;0.60;;;;;;;32.46;15.34;98711.63;5088790;28;20114;-86
2021/06/02 08:09:43;;;;;;;0.52;0.40;;;;;;;32.17;15.90;98717.81;5095205;28;20033;-86
2021/06/02 08:12:11;;;;;;;1.63;0.50;;;;;;;30.41;17.54;98720.19;5095725;28;20376;-85
2021/06/02 08:14:37;;;;;;;0.40;0.40;;;;;;;30.03;18.98;98713.91;5095724;28;20020;-86
2021/06/02 08:17:03;;;;;;;1.05;0.50;;;;;;;30.22;17.85;98726.16;5095233;28;20115;-85
2021/06/02 08:19:29;;;;;;;0.63;0.45;;;;;;;31.84;16.92;98723.31;5095005;28;20093;-86
2021/06/02 08:21:55;;;;;;;2.25;0.70;;;;;;;31.82;15.58;98725.84;5095040;28;20039;-86
2021/06/02 08:24:22;;;;;;;0.50;0.40;;;;;;;31.00;16.48;98724.00;5094052;28;20020;-86
2021/06/02 08:26:48;;;;;;;0.85;0.40;;;;;;;31.26;16.24;98725.38;5094851;28;20111;-85
2021/06/02 08:29:14;;;;;;;0.40;0.40;;;;;;;32.09;15.02;98728.72;5095186;28;20024;-85
2021/06/02 08:31:40;;;;;;;0.57;0.40;;;;;;;32.13;15.84;98730.59;5095066;28;20176;-86
2021/06/02 08:34:06;;;;;;;0.30;0.30;;;;;;;30.96;17.52;98727.00;5095034;28;20115;-85
2021/06/02 08:36:32;;;;;;;3.90;0.50;;;;;;;30.67;16.82;98724.44;5094894;28;20056;-86
2021/06/02 08:38:58;;;;;;;0.45;0.35;;;;;;;31.66;16.47;98725.34;5094819;28;20111;-86
2021/06/02 08:41:25;;;;;;;0.90;0.30;;;;;;;32.37;14.30;98718.09;5094919;28;20512;-86
2021/06/02 08:43:51;;;;;;;0.38;0.38;;;;;;;32.45;14.69;98716.53;5094940;28;20039;-86
2021/06/02 08:46:18;;;;;;;0.85;0.45;;;;;;;31.96;13.87;98722.41;5094548;28;20481;-87
2021/06/02 08:48:49;;;;;;;0.40;0.40;;;;;;;31.93;14.27;98731.03;5095278;28;20059;-87
2021/06/02 08:51:17;;;;;;;;;;;;;;;32.34;13.02;98727.59;5095013;28;20396;-86
2021/06/02 08:53:45;;;;;;;0.30;0.30;;;;;;;31.92;16.64;98718.13;5094656;28;20318;-87
2021/06/02 08:56:12;;;;;;;1.30;0.30;;;;;;;31.81;15.46;98718.56;5094612;28;20024;-86
2021/06/02 08:58:38;;;;;;;0.35;0.35;;;;;;;30.30;15.31;98705.59;5094382;28;20089;-86
2021/06/02 09:01:04;;;;;;;0.55;0.40;;;;;;;29.76;16.86;98722.13;5093319;28;20103;-86
2021/06/02 09:03:31;;;;;;;1.33;0.70;;;;;;;30.27;16.27;98715.00;5094676;28;20035;-86
2021/06/02 09:05:58;;;;;;;0.65;0.45;;;;;;;30.26;16.49;98715.47;5094340;28;20368;-85
2021/06/02 09:08:27;;;;;;;0.35;0.35;;;;;;;30.47;15.28;98721.19;5094043;28;20455;-86
2021/06/02 09:10:54;;;;;;;0.60;0.40;;;;;;;31.48;15.33;98705.44;5094686;28;20031;-86
2021/06/02 09:13:23;;;;;;;0.40;0.35;;;;;;;29.85;17.22;98723.00;5094363;28;20024;-85
2021/06/02 09:15:52;;;;;;;0.45;0.30;;;;;;;29.81;16.83;98728.03;5094519;28;20119;-85
2021/06/02 09:18:20;;;;;;;1.55;0.50;;;;;;;29.41;18.08;98722.09;5093628;28;20514;-85
2021/06/02 09:20:51;;;;;;;0.77;0.50;;;;;;;30.76;16.76;98715.19;5093856;28;20028;-86
2021/06/02 09:23:37;;;;;;;0.90;0.50;;;;;;;29.35;16.28;98725.94;5094051;28;20112;-85
2021/06/02 09:26:14;;;;;;;0.63;0.40;;;;;;;28.92;16.19;98726.50;5094205;28;20433;-85
2021/06/02 09:28:57;;;;;;;0.70;0.50;;;;;;;29.06;17.58;98734.53;5094361;28;20043;-85
2021/06/02 09:31:37;;;;;;;0.60;0.50;;;;;;;30.92;16.44;98720.69;5094046;28;20539;-86
2021/06/02 09:34:06;;;;;;;0.52;0.40;;;;;;;31.24;16.27;98723.00;5094134;28;20077;-87
2021/06/02 09:36:35;;;;;;;0.70;0.30;;;;;;;31.11;16.38;98724.38;5093411;28;20031;-85
2021/06/02 09:39:05;;;;;;;0.32;0.22;;;;;;;31.86;16.46;98714.31;5093867;28;20150;-85
2021/06/02 09:41:37;;;;;;;;;;;;;;;33.41;13.26;98710.69;5094630;28;20024;-86
2021/06/02 09:44:15;;;;;;;1.13;0.40;;;;;;;34.29;13.78;98713.88;5093742;28;19943;-86
2021/06/02 09:46:58;;;;;;;0.30;0.30;;;;;;;33.72;13.42;98704.69;5093701;28;20433;-85
2021/06/02 09:49:25;;;;;;;0.30;0.30;;;;;;;31.49;14.42;98715.50;5072223;28;20036;-86
2021/06/02 09:51:51;;;;;;;0.30;0.30;;;;;;;32.91;14.50;98717.22;5073261;28;20111;-86
2021/06/02 09:54:21;;;;;;;0.30;0.30;;;;;;;32.29;15.00;98721.75;5073297;28;20068;-85
2021/06/02 09:56:47;;;;;;;0.63;0.40;;;;;;;31.31;13.33;98716.25;5073675;28;20037;-86
2021/06/02 09:59:15;;;;;;;0.80;0.30;;;;;;;30.89;15.52;98720.81;5075260;28;20488;-85
2021/06/02 10:01:53;;;;;;;1.80;0.30;;;;;;;30.87;14.29;98714.78;5093775;28;20032;-86
2021/06/02 10:04:27;;;;;;;0.40;0.40;;;;;;;30.09;16.90;98727.00;5093413;28;20024;-86
2021/06/02 10:06:53;;;;;;;1.63;0.30;;;;;;;30.84;14.61;98716.50;5093762;28;20032;-86
2021/06/02 10:09:25;;;;;;;0.38;0.30;;;;;;;32.02;14.93;98714.81;5093733;28;20032;-87
2021/06/02 10:12:00;;;;;;;0.32;0.30;;;;;;;32.92;14.39;98715.16;5093637;28;20404;-86
2021/06/02 10:14:27;;;;;;;0.30;0.30;;;;;;;31.23;14.95;98718.56;5093795;28;20047;-86
2021/06/02 10:16:53;;;;;;;0.93;0.38;;;;;;;31.66;14.22;98705.47;5092969;28;20031;-86
2021/06/02 10:19:52;;;;;;;0.68;0.30;;;;;;;33.46;13.94;98702.75;5093049;28;20124;-86
2021/06/02 10:22:25;;;;;;;1.02;0.30;;;;;;;34.32;13.16;98709.25;5060305;28;20040;-86
2021/06/02 10:24:53;;;;;;;1.35;0.30;;;;;;;31.07;15.03;98713.16;5093293;28;20365;-86
2021/06/02 10:27:20;;;;;;;0.60;0.40;;;;;;;30.30;15.96;98714.09;5093330;28;20036;-86
2021/06/02 10:29:48;;;;;;;1.23;0.25;;;;;;;31.79;14.88;98706.88;5093386;28;20028;-86
2021/06/02 10:32:15;;;;;;;0.40;0.32;;;;;;;32.38;15.78;98699.78;5093787;28;20421;-86
2021/06/02 10:34:42;;;;;;;0.30;0.30;;;;;;;33.35;15.38;98694.75;5093063;28;20055;-86
2021/06/02 10:37:11;;;;;;;0.73;0.40;;;;;;;32.53;14.44;98697.91;5093447;28;20039;-85
2021/06/02 10:39:40;;;;;;;0.50;0.40;;;;;;;31.39;14.70;98709.03;5093424;28;20032;-86
2021/06/02 10:42:28;;;;;;;1.23;0.30;;;;;;;31.98;17.22;98711.34;5093134;28;20028;-86
2021/06/02 10:45:00;;;;;;;0.30;0.30;;;;;;;30.64;16.34;98716.84;5093177;28;20054;-86
2021/06/02 10:47:27;;;;;;;1.38;0.40;;;;;;;30.32;16.42;98725.75;5092856;28;20028;-86
2021/06/02 10:49:54;;;;;;;1.02;0.40;;;;;;;32.62;15.94;98717.78;5096621;28;20028;-86
2021/06/02 10:52:41;;;;;;;0.77;0.47;;;;;;;34.13;13.02;98717.19;5082409;28;20033;-85
2021/06/02 10:55:33;;;;;;;0.55;0.40;;;;;;;33.07;13.55;98714.00;5077021;28;20033;-85
2021/06/02 10:58:23;;;;;;;0.95;0.50;;;;;;;34.29;14.83;98711.03;5076772;28;20033;-85
2021/06/02 11:01:05;;;;;;;1.17;0.50;;;;;;;33.62;14.74;98708.06;5076660;28;20056;-86
2021/06/02 11:03:32;;;;;;;0.77;0.40;;;;;;;33.36;14.07;98719.91;5075055;28;20032;-85
2021/06/02 11:06:31;;;;;;;2.20;0.40;;;;;;;32.94;14.11;98707.72;5076508;28;20067;-86
2021/06/02 11:09:05;;;;;;;0.40;0.40;;;;;;;33.82;15.13;98709.00;5093200;28;20032;-86
2021/06/02 11:11:33;;;;;;;1.10;0.30;;;;;;;31.96;15.09;98715.91;5096620;28;20499;-86
2021/06/02 11:14:17;;;;;;;0.52;0.43;;;;;;;31.25;13.96;98713.22;5096705;28;20450;-86
2021/06/02 11:17:01;;;;;;;0.50;0.40;;;;;;;30.59;15.44;98716.69;5096320;28;20027;-86
2021/06/02 11:19:39;;;;;;;0.40;0.40;;;;;;;30.18;15.07;98705.69;5091776;28;20439;-85
2021/06/02 11:22:07;;;;;;;0.43;0.43;;;;;;;31.06;16.74;98702.28;5096624;28;20039;-86
2021/06/02 11:24:34;;;;;;;0.88;0.40;;;;;;;30.66;14.46;98708.69;5096329;28;20537;-86
2021/06/02 11:27:16;;;;;;;0.30;0.30;;;;;;;31.48;15.45;98699.75;5096331;28;20043;-86
2021/06/02 11:29:48;;;;;;;0.45;0.40;;;;;;;30.64;15.88;98699.84;5096892;28;20032;-86
2021/06/02 11:32:18;;;;;;;0.50;0.50;;;;;;;30.13;16.12;98703.44;5096187;28;20028;-86
2021/06/02 11:34:45;;;;;;;;;;;;;;;30.55;15.63;98707.53;5096677;28;20077;-86
2021/06/02 11:37:19;;;;;;;0.77;0.50;;;;;;;32.64;17.06;98703.88;5096654;28;19912;-86
2021/06/02 11:39:48;;;;;;;2.10;0.40;;;;;;;31.93;14.20;98699.78;5094894;28;20094;-86
2021/06/02 11:42:26;;;;;;;0.68;0.40;;;;;;;32.34;15.88;98701.22;5096121;28;20137;-87
2021/06/02 11:44:58;;;;;;;0.55;0.50;;;;;;;32.29;15.09;98696.19;5096303;28;20032;-87
2021/06/02 11:47:25;;;;;;;1.23;0.50;;;;;;;31.97;15.01;98711.84;5095602;28;20384;-86
2021/06/02 11:49:51;;;;;;;0.73;0.55;;;;;;;33.70;13.66;98707.19;5090724;28;20032;-86
2021/06/02 11:52:18;;;;;;;0.70;0.40;;;;;;;35.03;13.46;98697.59;5075678;28;20020;-86
2021/06/02 11:55:03;;;;;;;1.10;0.40;;;;;;;34.68;14.38;98700.38;5075570;28;20028;-86
2021/06/02 11:57:31;;;;;;;1.50;0.50;;;;;;;33.02;13.79;98703.31;5075401;28;20033;-86
2021/06/02 12:00:04;;;;;;;0.40;0.40;;;;;;;32.84;14.27;98691.19;5091490;28;20066;-86
2021/06/02 12:02:30;;;;;;;0.98;0.68;;;;;;;33.99;13.86;98700.81;5095899;28;20021;-86
2021/06/02 12:05:15;;;;;;;2.28;0.40;;;;;;;34.82;14.49;98693.88;5095638;28;20537;-86
2021/06/02 12:07:56;;;;;;;0.35;0.35;;;;;;;33.39;14.03;98693.31;5095647;28;20392;-86
2021/06/02 12:10:23;;;;;;;0.50;0.40;;;;;;;32.59;14.40;98698.03;5095409;28;20488;-87
2021/06/02 12:12:50;;;;;;;0.43;0.40;;;;;;;32.11;15.53;98693.38;5095479;28;20476;-87
2021/06/02 12:15:18;;;;;;;2.50;0.52;;;;;;;31.55;15.10;98694.56;5095091;28;20115;-85
2021/06/02 12:17:45;;;;;;;0.60;0.60;;;;;;;31.54;15.45;98690.16;5094957;28;20426;-86